Archbold, OH

4:03 PM EDT on April 18, 2015 (GMT -0400)
3 Miles ESE Archbold, OH | | Change Station
CLOSE
Current Station
Personal Weather Station
Location: Archbold, OH
Elevation: 741 ft
Nearby Weather Stations

Elev 741 ft 41.49 °N, 84.26 °W | Updated 10 seconds ago

Partly Cloudy
Partly Cloudy
73.7 °F
Feels Like 77 °F
N
19.9
Wind Variable Wind from ENE
Gusts 21.0 mph

Today
High -- | Low -- °F
--% Chance of Precip.
Yesterday
High -- | Low -- °F
Precip. -- in
6:53 AM 8:20 PM
New Moon, 0% visible
Pressure 30.06 in
Visibility 9.0 miles
Clouds Clear
Heat Index 77 °F
Dew Point 51 °F
Humidity 45%
Rainfall 0.00 in
Snow Depth Not available.
UV 7 out of 12
Pollen 10.70 out of 12
Air Quality Not available.
Flu Activity Regional
METAR KUSE 181955Z AUTO 09019KT 9SM CLR 22/07 A3006 RMK AO2

More Conditions Fewer Conditions

Pressure 30.06 in
Visibility 9.0 miles
Clouds Clear
Heat Index 77 °F
Dew Point 51 °F
Humidity 45%
Rainfall 0.00 in
Snow Depth Not available.
UV 7 out of 12
Pollen 10.70 out of 12
Air Quality Not available.
Flu Activity Regional
METAR KUSE 181955Z AUTO 09019KT 9SM CLR 22/07 A3006 RMK AO2

More Conditions Fewer Conditions

10-Day Weather Forecast

Almanac

Astronomy

Apr. 18, 2015 Rise Set
Actual Time
Civil Twilight
Nautical Twilight
Astronomical Twilight
Moon
Length of Visible Light
Length of Day
Tomorrow will be .
, % of the Moon is Illuminated

Today's Extremes

State Highs State Lows

Community

WunderPhotos

Upload Photos

1,814,513 photos uploaded!

WunderBlogs® & News

Nearby

Air Quality

  Air Quality AQ Index Pollutant
Not available.

Snow Depth

Station Depth Elevation

Earthquake Activity

City Distance Mag. Time & Date
Minimum magnitude displayed is 2.5.

Coastal Water Temperatures

Place Temperature

Stations

Nearby Weather Stations

Station Location Temp. Windchill Dew Point Humidity Wind Precip. Elev Updated Type